createdAt,value
2017-10-14T00:01:48.374Z,96679.23
2017-10-14T00:04:17.418Z,96683.05
2017-10-14T00:06:46.495Z,96684.87
2017-10-14T00:09:15.538Z,96679.77
2017-10-14T00:11:44.586Z,96683.23
2017-10-14T00:14:13.619Z,96683.38
2017-10-14T00:16:42.664Z,96682.97
2017-10-14T00:19:12.613Z,96676.72
2017-10-14T00:21:41.677Z,96680.75
2017-10-14T00:24:10.734Z,96679.39
2017-10-14T00:26:39.763Z,96675.49
2017-10-14T00:29:08.801Z,96678.21
2017-10-14T00:31:37.845Z,96679.69
2017-10-14T00:34:06.873Z,96678.15
2017-10-14T00:36:35.973Z,96673.81
2017-10-14T00:39:05.001Z,96679.50
2017-10-14T00:41:34.026Z,96675.32
2017-10-14T00:44:03.064Z,96671.64
2017-10-14T00:46:32.115Z,96671.74
2017-10-14T00:49:01.421Z,96669.59
2017-10-14T00:51:30.437Z,96667.86
2017-10-14T00:53:59.470Z,96662.76
2017-10-14T00:56:28.520Z,96660.04
2017-10-14T00:58:58.535Z,96662.09
2017-10-14T01:01:27.742Z,96662.44
2017-10-14T01:03:56.773Z,96655.17
2017-10-14T01:06:25.803Z,96652.34
2017-10-14T01:08:54.837Z,96649.63
2017-10-14T01:11:23.944Z,96648.39
2017-10-14T01:13:53.009Z,96648.91
2017-10-14T01:16:22.035Z,96649.86
2017-10-14T01:18:51.120Z,96649.50
2017-10-14T01:21:20.159Z,96645.84
2017-10-14T01:23:50.096Z,96644.91
2017-10-14T01:26:19.149Z,96644.16
2017-10-14T01:28:48.193Z,96640.05
2017-10-14T01:31:17.289Z,96642.97
2017-10-14T01:33:47.259Z,96636.59
2017-10-14T01:36:16.289Z,96636.28
2017-10-14T01:38:45.314Z,96634.08
2017-10-14T01:41:14.354Z,96627.17
2017-10-14T01:43:43.428Z,96629.48
2017-10-14T01:46:12.456Z,96631.27
2017-10-14T01:48:41.487Z,96626.91
2017-10-14T01:51:10.537Z,96627.97
2017-10-14T01:53:39.578Z,96628.81
2017-10-14T01:56:08.611Z,96631.27
2017-10-14T01:58:37.650Z,96633.63
2017-10-14T02:01:06.678Z,96639.50
2017-10-14T02:03:35.712Z,96640.53
2017-10-14T02:06:04.767Z,96647.17
2017-10-14T02:08:33.819Z,96648.72
2017-10-14T02:11:02.849Z,96647.48
2017-10-14T02:13:31.877Z,96644.83
2017-10-14T02:16:00.971Z,96644.12
2017-10-14T02:18:30.091Z,96644.22
2017-10-14T02:20:59.138Z,96651.25
2017-10-14T02:23:28.175Z,96651.57
2017-10-14T02:25:57.206Z,96655.30
2017-10-14T02:28:26.249Z,96655.18
2017-10-14T02:30:55.301Z,96653.11
2017-10-14T02:33:24.335Z,96653.84
2017-10-14T02:35:54.346Z,96651.97
2017-10-14T02:38:23.422Z,96657.09
2017-10-14T02:40:52.446Z,96659.88
2017-10-14T02:43:21.501Z,96661.46
2017-10-14T02:45:50.527Z,96658.53
2017-10-14T02:48:19.567Z,96654.16
2017-10-14T02:50:48.621Z,96655.70
2017-10-14T02:53:17.642Z,96656.55
2017-10-14T02:55:46.715Z,96657.16
2017-10-14T02:58:15.747Z,96658.09
2017-10-14T03:00:44.806Z,96656.20
2017-10-14T03:03:13.841Z,96652.95
2017-10-14T03:05:42.864Z,96650.41
2017-10-14T03:08:11.898Z,96653.50
2017-10-14T03:10:41.653Z,96649.86
2017-10-14T03:13:10.796Z,96656.58
2017-10-14T03:15:39.814Z,96649.56
2017-10-14T03:18:08.867Z,96647.22
2017-10-14T03:20:37.920Z,96644.52
2017-10-14T03:23:06.955Z,96646.27
2017-10-14T03:25:35.992Z,96649.22
2017-10-14T03:28:05.036Z,96646.31
2017-10-14T03:30:34.095Z,96646.98
2017-10-14T03:33:03.143Z,96648.36
2017-10-14T03:35:32.190Z,96648.66
2017-10-14T03:38:01.239Z,96649.28
2017-10-14T03:40:30.302Z,96644.47
2017-10-14T03:42:59.361Z,96652.34
2017-10-14T03:45:28.423Z,96646.17
2017-10-14T03:47:57.492Z,96651.34
2017-10-14T03:50:26.531Z,96651.75
2017-10-14T03:52:55.563Z,96655.99
2017-10-14T03:55:25.542Z,96655.31
2017-10-14T03:57:54.586Z,96657.80
2017-10-14T04:00:23.838Z,96655.84
2017-10-14T04:02:52.875Z,96658.19
2017-10-14T04:05:22.022Z,96658.77
2017-10-14T04:07:51.069Z,96663.30
2017-10-14T04:10:20.144Z,96662.55
2017-10-14T04:12:49.216Z,96657.93
2017-10-14T04:15:18.267Z,96664.63
2017-10-14T04:17:47.300Z,96662.41
2017-10-14T04:20:16.343Z,96663.52
2017-10-14T04:22:45.410Z,96666.50
2017-10-14T04:25:14.443Z,96671.35
2017-10-14T04:27:43.482Z,96668.25
2017-10-14T04:30:12.512Z,96664.80
2017-10-14T04:32:41.559Z,96670.04
2017-10-14T04:35:10.607Z,96668.47
2017-10-14T04:37:39.758Z,96669.45
2017-10-14T04:40:08.827Z,96671.27
2017-10-14T04:42:37.907Z,96667.64
2017-10-14T04:45:06.918Z,96666.89
2017-10-14T04:47:35.951Z,96667.05
2017-10-14T04:50:05.016Z,96665.78
2017-10-14T04:52:34.102Z,96665.95
2017-10-14T04:55:03.218Z,96669.02
2017-10-14T04:57:32.252Z,96669.93
2017-10-14T05:00:01.331Z,96679.73
2017-10-14T05:02:30.372Z,96671.23
2017-10-14T05:05:00.339Z,96668.55
2017-10-14T05:07:29.406Z,96668.47
2017-10-14T05:09:58.442Z,96669.41
2017-10-14T05:12:27.669Z,96677.13
2017-10-14T05:14:58.062Z,96674.50
2017-10-14T05:17:27.091Z,96677.30
2017-10-14T05:19:56.126Z,96676.00
2017-10-14T05:22:25.276Z,96675.47
2017-10-14T05:24:54.314Z,96679.03
2017-10-14T05:27:24.009Z,96677.58
2017-10-14T05:29:53.050Z,96674.62
2017-10-14T05:32:22.117Z,96682.95
2017-10-14T05:34:51.169Z,96681.95
2017-10-14T05:37:21.186Z,96687.41
2017-10-14T05:39:50.238Z,96687.04
2017-10-14T05:42:19.297Z,96690.43
2017-10-14T05:44:48.327Z,96689.48
2017-10-14T05:47:17.995Z,96692.81
2017-10-14T05:49:47.975Z,96693.20
2017-10-14T05:52:17.005Z,96691.42
2017-10-14T05:54:46.066Z,96694.53
2017-10-14T05:57:15.418Z,96694.50
2017-10-14T05:59:44.636Z,96697.83
2017-10-14T06:02:13.711Z,96699.54
2017-10-14T06:04:42.963Z,96703.39
2017-10-14T06:07:12.043Z,96704.91
2017-10-14T06:09:41.081Z,96707.31
2017-10-14T06:12:11.048Z,96710.92
2017-10-14T06:14:40.134Z,96715.69
2017-10-14T06:17:09.177Z,96715.78
2017-10-14T06:19:38.229Z,96710.39
2017-10-14T06:22:08.608Z,96711.55
2017-10-14T06:24:37.622Z,96710.81
2017-10-14T06:27:06.719Z,96710.38
2017-10-14T06:29:35.793Z,96711.98
2017-10-14T06:32:05.786Z,96712.52
2017-10-14T06:34:34.830Z,96709.40
2017-10-14T06:37:04.809Z,96711.09
2017-10-14T06:39:33.866Z,96707.12
2017-10-14T06:42:02.952Z,96707.27
2017-10-14T06:44:32.007Z,96714.22
2017-10-14T06:47:01.039Z,96714.38
2017-10-14T06:49:30.083Z,96713.89
2017-10-14T06:51:59.927Z,96714.19
2017-10-14T06:54:29.004Z,96715.34
2017-10-14T06:56:58.055Z,96716.52
2017-10-14T06:59:27.111Z,96719.38
2017-10-14T07:01:56.162Z,96717.45
2017-10-14T07:04:25.278Z,96720.31
2017-10-14T07:06:54.362Z,96720.30
2017-10-14T07:09:23.403Z,96724.98
2017-10-14T07:11:52.443Z,96724.45
2017-10-14T07:14:21.796Z,96725.70
2017-10-14T07:16:51.015Z,96725.95
2017-10-14T07:19:21.831Z,96727.80
2017-10-14T07:21:50.960Z,96729.41
2017-10-14T07:24:20.006Z,96730.45
2017-10-14T07:26:49.055Z,96734.33
2017-10-14T07:29:18.120Z,96736.59
2017-10-14T07:31:47.176Z,96732.66
2017-10-14T07:34:16.227Z,96737.42
2017-10-14T07:36:45.287Z,96746.33
2017-10-14T07:39:14.346Z,96744.67
2017-10-14T07:41:43.394Z,96750.86
2017-10-14T07:44:12.469Z,96745.56
2017-10-14T07:46:41.522Z,96745.72
2017-10-14T07:49:10.712Z,96745.05
2017-10-14T07:51:39.759Z,96745.67
2017-10-14T07:54:08.795Z,96740.79
2017-10-14T07:56:37.843Z,96743.16
2017-10-14T07:59:06.875Z,96746.95
2017-10-14T08:01:35.935Z,96750.67
2017-10-14T08:04:04.979Z,96744.64
2017-10-14T08:06:34.059Z,96744.51
2017-10-14T08:09:03.130Z,96742.47
2017-10-14T08:11:32.726Z,96739.53
2017-10-14T08:14:08.631Z,96732.75
2017-10-14T08:16:37.687Z,96730.06
2017-10-14T08:19:06.738Z,96727.20
2017-10-14T08:21:36.019Z,96723.80
2017-10-14T08:24:05.064Z,96722.09
2017-10-14T08:26:34.150Z,96719.28
2017-10-14T08:29:03.198Z,96716.95
2017-10-14T08:31:33.215Z,96717.70
2017-10-14T08:34:03.237Z,96717.89
2017-10-14T08:36:32.333Z,96720.53
2017-10-14T08:39:01.355Z,96717.97
2017-10-14T08:41:30.416Z,96720.15
2017-10-14T08:43:59.444Z,96722.79
2017-10-14T08:46:28.490Z,96719.46
2017-10-14T08:48:57.547Z,96719.47
2017-10-14T08:51:26.763Z,96713.63
2017-10-14T08:53:56.057Z,96708.57
2017-10-14T08:56:25.180Z,96710.62
2017-10-14T08:58:54.197Z,96705.76
2017-10-14T09:01:23.246Z,96706.45
2017-10-14T09:03:52.298Z,96696.17
2017-10-14T09:06:21.938Z,96690.40
2017-10-14T09:08:50.982Z,96691.64
2017-10-14T09:11:20.047Z,96685.86
2017-10-14T09:13:49.104Z,96691.62
2017-10-14T09:16:18.158Z,96692.77
2017-10-14T09:18:47.258Z,96693.59
2017-10-14T09:21:16.353Z,96685.94
2017-10-14T09:23:45.444Z,96683.36
2017-10-14T09:26:14.494Z,96675.31
2017-10-14T09:28:43.652Z,96675.39
2017-10-14T09:31:12.701Z,96675.04
2017-10-14T09:33:41.760Z,96674.61
2017-10-14T09:36:10.820Z,96672.48
2017-10-14T09:38:39.867Z,96668.22
2017-10-14T09:41:08.939Z,96671.11
2017-10-14T09:43:38.012Z,96671.91
2017-10-14T09:46:07.059Z,96673.55
2017-10-14T09:48:36.109Z,96670.06
2017-10-14T09:51:05.177Z,96668.02
2017-10-14T09:53:34.229Z,96670.92
2017-10-14T09:56:03.262Z,96665.55
2017-10-14T09:58:32.352Z,96664.39
2017-10-14T10:01:01.485Z,96662.36
2017-10-14T10:03:30.726Z,96663.83
2017-10-14T10:05:59.770Z,96660.36
2017-10-14T10:08:28.819Z,96657.62
2017-10-14T10:10:57.882Z,96664.05
2017-10-14T10:13:26.971Z,96659.44
2017-10-14T10:15:56.232Z,96658.57
2017-10-14T10:18:25.422Z,96664.72
2017-10-14T10:20:54.536Z,96663.04
2017-10-14T10:23:23.579Z,96655.87
2017-10-14T10:25:52.763Z,96659.14
2017-10-14T10:28:24.751Z,96654.84
2017-10-14T10:30:55.022Z,96655.19
2017-10-14T10:33:24.125Z,96659.31
2017-10-14T10:35:53.224Z,96655.57
2017-10-14T10:38:22.279Z,96651.19
2017-10-14T10:40:51.323Z,96649.37
2017-10-14T10:43:20.392Z,96647.41
2017-10-14T10:45:49.562Z,96644.36
2017-10-14T10:48:18.645Z,96645.23
2017-10-14T10:50:47.751Z,96642.31
2017-10-14T10:53:17.874Z,96642.30
2017-10-14T10:55:47.037Z,96633.75
2017-10-14T10:58:16.206Z,96632.53
2017-10-14T11:00:45.579Z,96627.84
2017-10-14T11:03:15.068Z,96625.22
2017-10-14T11:05:44.366Z,96621.00
2017-10-14T11:08:13.454Z,96619.91
2017-10-14T11:10:42.649Z,96617.80
2017-10-14T11:13:11.951Z,96615.02
2017-10-14T11:15:41.056Z,96613.67
2017-10-14T11:18:10.490Z,96608.39
2017-10-14T11:20:39.818Z,96610.02
2017-10-14T11:23:08.902Z,96609.08
2017-10-14T11:25:37.959Z,96609.19
2017-10-14T11:28:07.280Z,96608.22
2017-10-14T11:30:36.678Z,96600.33
2017-10-14T11:33:05.967Z,96597.49
2017-10-14T11:35:35.166Z,96597.33
2017-10-14T11:38:04.220Z,96593.11
2017-10-14T11:40:33.400Z,96591.84
2017-10-14T11:43:03.001Z,96584.19
2017-10-14T11:45:32.484Z,96583.69
2017-10-14T11:48:01.587Z,96580.91
2017-10-14T11:50:30.644Z,96582.31
2017-10-14T11:52:59.912Z,96579.44
2017-10-14T11:55:28.947Z,96576.41
2017-10-14T11:57:58.074Z,96575.41
2017-10-14T12:00:27.125Z,96579.95
2017-10-14T12:02:56.223Z,96575.16
2017-10-14T12:05:25.410Z,96573.42
2017-10-14T12:07:54.446Z,96572.47
2017-10-14T12:10:23.947Z,96574.20
2017-10-14T12:12:53.089Z,96572.50
2017-10-14T12:15:22.290Z,96568.84
2017-10-14T12:17:51.332Z,96567.16
2017-10-14T12:20:20.385Z,96566.50
2017-10-14T12:22:49.430Z,96564.97
2017-10-14T12:25:20.897Z,96564.20
2017-10-14T12:27:53.737Z,96561.64
2017-10-14T12:30:23.024Z,96560.89
2017-10-14T12:32:52.473Z,96559.08
2017-10-14T12:35:21.516Z,96559.27
2017-10-14T12:37:50.871Z,96562.00
2017-10-14T12:40:20.761Z,96559.25
2017-10-14T12:42:49.915Z,96558.91
2017-10-14T12:45:20.231Z,96559.23
2017-10-14T12:47:49.287Z,96559.72
2017-10-14T12:50:18.590Z,96559.38
2017-10-14T12:52:47.622Z,96556.81
2017-10-14T12:55:16.680Z,96560.73
2017-10-14T12:57:45.739Z,96565.63
2017-10-14T13:00:14.790Z,96562.14
2017-10-14T13:02:43.847Z,96560.08
2017-10-14T13:05:12.946Z,96561.95
2017-10-14T13:07:41.990Z,96560.95
2017-10-14T13:10:11.115Z,96556.37
2017-10-14T13:12:40.175Z,96554.41
2017-10-14T13:15:09.219Z,96550.63
2017-10-14T13:17:38.298Z,96553.81
2017-10-14T13:20:07.349Z,96552.73
2017-10-14T13:22:36.454Z,96553.65
2017-10-14T13:25:05.527Z,96553.98
2017-10-14T13:27:34.593Z,96554.11
2017-10-14T13:30:06.164Z,96555.23
2017-10-14T13:32:35.231Z,96553.03
2017-10-14T13:35:04.284Z,96548.66
2017-10-14T13:37:33.645Z,96547.44
2017-10-14T13:40:02.666Z,96546.05
2017-10-14T13:42:31.953Z,96549.88
2017-10-14T13:45:01.320Z,96544.91
2017-10-14T13:47:30.560Z,96544.61
2017-10-14T13:50:00.494Z,96539.02
2017-10-14T13:52:29.708Z,96538.77
2017-10-14T13:54:59.171Z,96538.13
2017-10-14T13:57:28.400Z,96536.94
2017-10-14T13:59:57.447Z,96535.77
2017-10-14T14:02:26.634Z,96534.89
2017-10-14T14:04:55.988Z,96536.16
2017-10-14T14:07:25.047Z,96528.92
2017-10-14T14:09:54.111Z,96531.52
2017-10-14T14:12:23.328Z,96534.52
2017-10-14T14:14:53.089Z,96528.17
2017-10-14T14:17:22.505Z,96538.66
2017-10-14T14:19:51.707Z,96539.06
2017-10-14T14:22:20.739Z,96538.85
2017-10-14T14:24:49.816Z,96539.00
2017-10-14T14:27:18.852Z,96535.61
2017-10-14T14:29:47.903Z,96533.47
2017-10-14T14:32:16.979Z,96537.30
2017-10-14T14:34:46.073Z,96536.94
2017-10-14T14:37:16.163Z,96535.32
2017-10-14T14:39:45.259Z,96533.34
2017-10-14T14:42:14.539Z,96531.64
2017-10-14T14:44:43.729Z,96534.55
2017-10-14T14:47:12.807Z,96538.72
2017-10-14T14:49:41.851Z,96534.73
2017-10-14T14:52:10.891Z,96538.59
2017-10-14T14:54:39.954Z,96535.86
2017-10-14T14:57:09.020Z,96530.30
2017-10-14T14:59:38.166Z,96535.00
2017-10-14T15:02:07.208Z,96532.69
2017-10-14T15:04:36.259Z,96540.61
2017-10-14T15:07:05.391Z,96540.56
2017-10-14T15:09:34.637Z,96540.67
2017-10-14T15:12:03.710Z,96541.58
2017-10-14T15:14:32.760Z,96543.09
2017-10-14T15:17:01.984Z,96544.75
2017-10-14T15:19:31.067Z,96548.98
2017-10-14T15:22:00.227Z,96540.74
2017-10-14T15:24:29.263Z,96545.73
2017-10-14T15:26:58.306Z,96540.36
2017-10-14T15:29:27.495Z,96537.47
2017-10-14T15:31:56.645Z,96536.48
2017-10-14T15:34:25.702Z,96532.55
2017-10-14T15:36:54.759Z,96537.28
2017-10-14T15:39:24.162Z,96538.17
2017-10-14T15:41:53.528Z,96539.62
2017-10-14T15:44:22.584Z,96542.35
2017-10-14T15:46:51.852Z,96541.41
2017-10-14T15:49:20.940Z,96538.46
2017-10-14T15:51:50.092Z,96535.52
2017-10-14T15:54:19.152Z,96533.78
2017-10-14T15:56:48.260Z,96538.63
2017-10-14T15:59:17.338Z,96536.34
2017-10-14T16:01:46.428Z,96540.56
2017-10-14T16:04:15.481Z,96539.13
2017-10-14T16:06:44.675Z,96534.55
2017-10-14T16:09:13.975Z,96537.63
2017-10-14T16:11:43.074Z,96539.19
2017-10-14T16:14:12.138Z,96542.36
2017-10-14T16:16:41.332Z,96540.25
2017-10-14T16:19:10.555Z,96541.56
2017-10-14T16:21:39.598Z,96544.49
2017-10-14T16:24:08.639Z,96542.22
2017-10-14T16:26:41.311Z,96551.62
2017-10-14T16:29:10.399Z,96550.84
2017-10-14T16:31:42.099Z,96554.98
2017-10-14T16:34:11.626Z,96555.89
2017-10-14T16:36:40.811Z,96554.04
2017-10-14T16:39:09.848Z,96557.27
2017-10-14T16:41:39.019Z,96553.02
2017-10-14T16:44:08.094Z,96558.66
2017-10-14T16:46:38.023Z,96560.30
2017-10-14T16:49:07.059Z,96566.23
2017-10-14T16:51:36.120Z,96569.67
2017-10-14T16:54:05.508Z,96567.69
2017-10-14T16:56:34.570Z,96566.55
2017-10-14T16:59:03.683Z,96572.59
2017-10-14T17:01:32.767Z,96578.53
2017-10-14T17:04:01.824Z,96581.13
2017-10-14T17:06:31.042Z,96584.89
2017-10-14T17:09:01.079Z,96588.57
2017-10-14T17:11:30.103Z,96586.94
2017-10-14T17:13:59.159Z,96585.72
2017-10-14T17:16:29.211Z,96590.62
2017-10-14T17:18:58.298Z,96595.94
2017-10-14T17:21:27.328Z,96597.81
2017-10-14T17:23:56.391Z,96599.23
2017-10-14T17:26:25.443Z,96598.77
2017-10-14T17:28:54.509Z,96601.41
2017-10-14T17:31:23.581Z,96602.64
2017-10-14T17:33:52.627Z,96599.11
2017-10-14T17:36:21.674Z,96600.60
2017-10-14T17:38:50.718Z,96598.78
2017-10-14T17:41:19.782Z,96600.13
2017-10-14T17:43:50.368Z,96603.77
2017-10-14T17:46:19.419Z,96609.61
2017-10-14T17:48:48.462Z,96607.45
2017-10-14T17:51:17.511Z,96605.88
2017-10-14T17:53:46.558Z,96615.36
2017-10-14T17:56:15.619Z,96615.34
2017-10-14T17:58:44.659Z,96613.61
2017-10-14T18:01:13.703Z,96609.72
2017-10-14T18:03:42.784Z,96612.20
2017-10-14T18:06:11.831Z,96609.31
2017-10-14T18:08:40.987Z,96606.19
2017-10-14T18:11:10.127Z,96606.20
2017-10-14T18:13:39.190Z,96607.88
2017-10-14T18:16:08.243Z,96605.52
2017-10-14T18:18:37.288Z,96607.07
2017-10-14T18:21:06.342Z,96605.92
2017-10-14T18:23:35.466Z,96605.97
2017-10-14T18:26:04.706Z,96606.95
2017-10-14T18:28:33.755Z,96608.89
2017-10-14T18:31:02.812Z,96611.89
2017-10-14T18:33:31.873Z,96611.78
2017-10-14T18:36:00.991Z,96615.39
2017-10-14T18:38:30.349Z,96617.67
2017-10-14T18:40:59.387Z,96618.30
2017-10-14T18:43:28.439Z,96618.95
2017-10-14T18:45:57.479Z,96619.11
2017-10-14T18:48:27.645Z,96621.30
2017-10-14T18:50:56.810Z,96622.91
2017-10-14T18:53:25.838Z,96624.30
2017-10-14T18:55:55.938Z,96632.22
2017-10-14T18:58:25.116Z,96639.33
2017-10-14T19:00:54.344Z,96645.23
2017-10-14T19:03:23.426Z,96648.77
2017-10-14T19:05:52.636Z,96647.83
2017-10-14T19:08:22.363Z,96649.97
2017-10-14T19:10:51.539Z,96653.08
2017-10-14T19:13:20.761Z,96653.70
2017-10-14T19:15:50.338Z,96652.77
2017-10-14T19:18:19.547Z,96653.12
2017-10-14T19:20:48.602Z,96649.82
2017-10-14T19:23:17.650Z,96648.20
2017-10-14T19:25:46.711Z,96653.98
2017-10-14T19:28:15.782Z,96653.56
2017-10-14T19:30:44.824Z,96650.59
2017-10-14T19:33:14.124Z,96651.68
2017-10-14T19:35:48.215Z,96649.95
2017-10-14T19:38:18.383Z,96651.29
2017-10-14T19:40:49.757Z,96645.06
2017-10-14T19:43:19.621Z,96640.95
2017-10-14T19:45:50.317Z,96638.08
2017-10-14T19:48:21.495Z,96636.84
2017-10-14T19:50:54.955Z,96636.67
2017-10-14T19:53:29.990Z,96635.97
2017-10-14T19:56:05.560Z,96640.75
2017-10-14T19:58:40.477Z,96637.95
2017-10-14T20:01:09.831Z,96641.65
2017-10-14T20:03:44.606Z,96639.80
2017-10-14T20:06:19.074Z,96636.14
2017-10-14T20:08:53.295Z,96638.47
2017-10-14T20:11:27.785Z,96645.56
2017-10-14T20:14:03.081Z,96644.48
2017-10-14T20:16:37.080Z,96643.83
2017-10-14T20:19:09.227Z,96645.52
2017-10-14T20:21:42.328Z,96645.36
2017-10-14T20:24:16.404Z,96642.43
2017-10-14T20:26:50.813Z,96639.87
2017-10-14T20:29:22.608Z,96641.84
2017-10-14T20:31:57.881Z,96647.20
2017-10-14T20:34:32.995Z,96644.65
2017-10-14T20:37:07.142Z,96647.03
2017-10-14T20:39:42.382Z,96645.67
2017-10-14T20:42:17.635Z,96648.42
2017-10-14T20:44:49.650Z,96644.27
2017-10-14T20:47:18.718Z,96646.69
2017-10-14T20:49:49.441Z,96642.14
2017-10-14T20:52:24.288Z,96644.62
2017-10-14T20:54:54.788Z,96643.09
2017-10-14T20:57:28.954Z,96638.92
2017-10-14T21:00:02.509Z,96647.68
2017-10-14T21:02:38.481Z,96647.86
2017-10-14T21:05:12.914Z,96642.07
2017-10-14T21:07:43.976Z,96640.86
2017-10-14T21:10:18.225Z,96638.06
2017-10-14T21:12:53.220Z,96636.59
2017-10-14T21:15:28.938Z,96635.19
2017-10-14T21:18:03.324Z,96630.92
2017-10-14T21:20:37.574Z,96632.25
2017-10-14T21:23:09.522Z,96638.77
2017-10-14T21:25:44.205Z,96636.94
2017-10-14T21:28:17.708Z,96638.66
2017-10-14T21:30:52.128Z,96637.52
2017-10-14T21:33:27.096Z,96638.95
2017-10-14T21:36:02.738Z,96639.28
2017-10-14T21:38:31.925Z,96636.64
2017-10-14T21:41:01.585Z,96635.44
2017-10-14T21:43:30.810Z,96633.88
2017-10-14T21:46:00.056Z,96633.71
2017-10-14T21:48:29.202Z,96629.50
2017-10-14T21:50:58.395Z,96630.48
2017-10-14T21:53:28.329Z,96639.09
2017-10-14T21:56:03.404Z,96633.93
2017-10-14T21:58:38.305Z,96636.28
2017-10-14T22:01:08.035Z,96638.91
2017-10-14T22:03:38.030Z,96634.91
2017-10-14T22:06:07.059Z,96637.67
2017-10-14T22:08:36.128Z,96641.99
2017-10-14T22:11:05.214Z,96643.38
2017-10-14T22:13:34.308Z,96641.62
2017-10-14T22:16:03.444Z,96643.05
2017-10-14T22:18:32.611Z,96636.72
2017-10-14T22:21:02.658Z,96639.35
2017-10-14T22:23:31.911Z,96640.59
2017-10-14T22:26:01.078Z,96641.09
2017-10-14T22:28:30.238Z,96641.63
2017-10-14T22:30:59.630Z,96638.79
2017-10-14T22:33:28.807Z,96638.71
2017-10-14T22:35:59.649Z,96639.67
2017-10-14T22:38:28.752Z,96637.87
2017-10-14T22:40:57.798Z,96638.94
2017-10-14T22:43:26.960Z,96647.62
2017-10-14T22:45:56.405Z,96640.79
2017-10-14T22:48:28.541Z,96646.08
2017-10-14T22:50:58.702Z,96647.30
2017-10-14T22:53:31.049Z,96650.35
2017-10-14T22:56:00.286Z,96653.56
2017-10-14T22:58:29.529Z,96659.78
2017-10-14T23:00:58.708Z,96662.80
2017-10-14T23:03:28.192Z,96662.64
2017-10-14T23:05:59.492Z,96658.83
2017-10-14T23:08:28.586Z,96658.62
2017-10-14T23:10:58.325Z,96657.91
2017-10-14T23:13:28.126Z,96653.48
2017-10-14T23:15:57.263Z,96652.98
2017-10-14T23:18:26.947Z,96653.28
2017-10-14T23:20:55.976Z,96654.78
2017-10-14T23:23:25.391Z,96651.42
2017-10-14T23:25:56.411Z,96649.44
2017-10-14T23:28:26.472Z,96651.91
2017-10-14T23:30:55.512Z,96652.86
2017-10-14T23:33:24.551Z,96652.69
2017-10-14T23:35:53.648Z,96652.70
2017-10-14T23:38:22.659Z,96655.74
2017-10-14T23:40:51.692Z,96653.80
2017-10-14T23:43:20.751Z,96656.02
2017-10-14T23:45:49.789Z,96655.00
2017-10-14T23:48:18.838Z,96654.68
2017-10-14T23:50:47.907Z,96653.03
2017-10-14T23:53:16.944Z,96650.34
2017-10-14T23:55:45.998Z,96651.62
2017-10-14T23:58:15.043Z,96649.69
